sensor_id;sensor_type;location;lat;lon;timestamp;P1;durP1;ratioP1;P2;durP2;ratioP2
19043;SDS011;9654;52.302;8.120;2022-12-20T00:00:05;7.27;;;4.80;;
19043;SDS011;9654;52.302;8.120;2022-12-20T00:02:33;10.43;;;5.47;;
19043;SDS011;9654;52.302;8.120;2022-12-20T00:04:59;7.93;;;5.30;;
19043;SDS011;9654;52.302;8.120;2022-12-20T00:07:26;9.70;;;5.70;;
19043;SDS011;9654;52.302;8.120;2022-12-20T00:09:53;9.63;;;5.23;;
19043;SDS011;9654;52.302;8.120;2022-12-20T00:12:19;6.53;;;4.80;;
19043;SDS011;9654;52.302;8.120;2022-12-20T00:14:47;8.93;;;4.90;;
19043;SDS011;9654;52.302;8.120;2022-12-20T00:17:14;7.47;;;5.33;;
19043;SDS011;9654;52.302;8.120;2022-12-20T00:19:42;5.23;;;4.73;;
19043;SDS011;9654;52.302;8.120;2022-12-20T00:22:09;9.13;;;4.50;;
19043;SDS011;9654;52.302;8.120;2022-12-20T00:24:35;8.10;;;4.67;;
19043;SDS011;9654;52.302;8.120;2022-12-20T00:27:02;7.23;;;4.47;;
19043;SDS011;9654;52.302;8.120;2022-12-20T00:29:29;6.53;;;4.60;;
19043;SDS011;9654;52.302;8.120;2022-12-20T00:31:57;6.20;;;4.20;;
19043;SDS011;9654;52.302;8.120;2022-12-20T00:34:24;9.53;;;5.03;;
19043;SDS011;9654;52.302;8.120;2022-12-20T00:36:51;8.43;;;4.90;;
19043;SDS011;9654;52.302;8.120;2022-12-20T00:39:17;6.37;;;4.60;;
19043;SDS011;9654;52.302;8.120;2022-12-20T00:41:44;6.93;;;4.83;;
19043;SDS011;9654;52.302;8.120;2022-12-20T00:44:11;8.00;;;4.90;;
19043;SDS011;9654;52.302;8.120;2022-12-20T00:46:38;7.73;;;4.43;;
19043;SDS011;9654;52.302;8.120;2022-12-20T00:49:06;9.60;;;4.93;;
19043;SDS011;9654;52.302;8.120;2022-12-20T00:51:32;7.13;;;4.67;;
19043;SDS011;9654;52.302;8.120;2022-12-20T00:53:59;7.80;;;4.23;;
19043;SDS011;9654;52.302;8.120;2022-12-20T00:56:26;9.87;;;4.90;;
19043;SDS011;9654;52.302;8.120;2022-12-20T00:58:53;8.70;;;4.77;;
19043;SDS011;9654;52.302;8.120;2022-12-20T01:01:21;6.57;;;4.47;;
19043;SDS011;9654;52.302;8.120;2022-12-20T01:03:49;8.20;;;4.57;;
19043;SDS011;9654;52.302;8.120;2022-12-20T01:06:19;4.70;;;4.20;;
19043;SDS011;9654;52.302;8.120;2022-12-20T01:08:46;5.37;;;4.13;;
19043;SDS011;9654;52.302;8.120;2022-12-20T01:11:18;5.63;;;4.40;;
19043;SDS011;9654;52.302;8.120;2022-12-20T01:13:47;7.57;;;4.33;;
19043;SDS011;9654;52.302;8.120;2022-12-20T01:16:17;5.73;;;3.93;;
19043;SDS011;9654;52.302;8.120;2022-12-20T01:18:45;9.43;;;4.30;;
19043;SDS011;9654;52.302;8.120;2022-12-20T01:21:13;13.67;;;5.13;;
19043;SDS011;9654;52.302;8.120;2022-12-20T01:23:42;5.50;;;4.57;;
19043;SDS011;9654;52.302;8.120;2022-12-20T01:26:11;5.17;;;4.27;;
19043;SDS011;9654;52.302;8.120;2022-12-20T01:28:40;6.37;;;4.00;;
19043;SDS011;9654;52.302;8.120;2022-12-20T01:31:08;10.23;;;4.73;;
19043;SDS011;9654;52.302;8.120;2022-12-20T01:33:35;6.13;;;4.03;;
19043;SDS011;9654;52.302;8.120;2022-12-20T01:36:03;5.53;;;4.07;;
19043;SDS011;9654;52.302;8.120;2022-12-20T01:38:32;5.10;;;3.93;;
19043;SDS011;9654;52.302;8.120;2022-12-20T01:41:00;8.67;;;4.30;;
19043;SDS011;9654;52.302;8.120;2022-12-20T01:43:43;7.70;;;4.20;;
19043;SDS011;9654;52.302;8.120;2022-12-20T01:46:12;5.80;;;3.70;;
19043;SDS011;9654;52.302;8.120;2022-12-20T01:48:39;7.93;;;4.00;;
19043;SDS011;9654;52.302;8.120;2022-12-20T01:51:08;5.97;;;3.50;;
19043;SDS011;9654;52.302;8.120;2022-12-20T01:53:35;5.53;;;3.93;;
19043;SDS011;9654;52.302;8.120;2022-12-20T01:56:04;4.13;;;3.63;;
19043;SDS011;9654;52.302;8.120;2022-12-20T01:58:32;6.93;;;3.73;;
19043;SDS011;9654;52.302;8.120;2022-12-20T02:01:01;5.30;;;3.50;;
19043;SDS011;9654;52.302;8.120;2022-12-20T02:03:28;5.33;;;3.37;;
19043;SDS011;9654;52.302;8.120;2022-12-20T02:05:57;5.47;;;3.93;;
19043;SDS011;9654;52.302;8.120;2022-12-20T02:08:39;4.43;;;4.00;;
19043;SDS011;9654;52.302;8.120;2022-12-20T02:11:10;4.77;;;3.90;;
19043;SDS011;9654;52.302;8.120;2022-12-20T02:13:49;5.63;;;3.53;;
19043;SDS011;9654;52.302;8.120;2022-12-20T02:16:27;5.30;;;3.50;;
19043;SDS011;9654;52.302;8.120;2022-12-20T02:18:58;4.63;;;3.53;;
19043;SDS011;9654;52.302;8.120;2022-12-20T02:21:33;5.00;;;3.63;;
19043;SDS011;9654;52.302;8.120;2022-12-20T02:24:22;3.57;;;3.10;;
19043;SDS011;9654;52.302;8.120;2022-12-20T02:27:07;5.03;;;3.93;;
19043;SDS011;9654;52.302;8.120;2022-12-20T02:30:01;3.87;;;3.40;;
19043;SDS011;9654;52.302;8.120;2022-12-20T02:32:34;3.90;;;3.27;;
19043;SDS011;9654;52.302;8.120;2022-12-20T02:35:05;3.57;;;3.07;;
19043;SDS011;9654;52.302;8.120;2022-12-20T02:37:34;4.43;;;3.63;;
19043;SDS011;9654;52.302;8.120;2022-12-20T02:40:01;4.73;;;3.43;;
19043;SDS011;9654;52.302;8.120;2022-12-20T02:42:30;6.00;;;3.20;;
19043;SDS011;9654;52.302;8.120;2022-12-20T02:44:59;5.30;;;3.50;;
19043;SDS011;9654;52.302;8.120;2022-12-20T02:47:44;5.60;;;3.07;;
19043;SDS011;9654;52.302;8.120;2022-12-20T02:50:16;4.37;;;3.37;;
19043;SDS011;9654;52.302;8.120;2022-12-20T02:52:46;3.87;;;3.30;;
19043;SDS011;9654;52.302;8.120;2022-12-20T02:55:14;7.13;;;3.17;;
19043;SDS011;9654;52.302;8.120;2022-12-20T02:57:43;3.50;;;2.97;;
19043;SDS011;9654;52.302;8.120;2022-12-20T03:00:15;4.43;;;3.10;;
19043;SDS011;9654;52.302;8.120;2022-12-20T03:02:44;4.53;;;2.63;;
19043;SDS011;9654;52.302;8.120;2022-12-20T03:05:29;6.87;;;3.03;;
19043;SDS011;9654;52.302;8.120;2022-12-20T03:07:59;5.90;;;3.23;;
19043;SDS011;9654;52.302;8.120;2022-12-20T03:10:26;5.00;;;2.80;;
19043;SDS011;9654;52.302;8.120;2022-12-20T03:12:53;4.40;;;3.00;;
19043;SDS011;9654;52.302;8.120;2022-12-20T03:15:21;3.50;;;3.10;;
19043;SDS011;9654;52.302;8.120;2022-12-20T03:17:48;4.50;;;3.00;;
19043;SDS011;9654;52.302;8.120;2022-12-20T03:20:15;3.40;;;3.00;;
19043;SDS011;9654;52.302;8.120;2022-12-20T03:22:42;5.43;;;2.73;;
19043;SDS011;9654;52.302;8.120;2022-12-20T03:25:08;5.23;;;3.57;;
19043;SDS011;9654;52.302;8.120;2022-12-20T03:27:35;2.93;;;2.40;;
19043;SDS011;9654;52.302;8.120;2022-12-20T03:30:02;4.70;;;3.10;;
19043;SDS011;9654;52.302;8.120;2022-12-20T03:32:31;3.87;;;2.60;;
19043;SDS011;9654;52.302;8.120;2022-12-20T03:34:58;5.47;;;2.83;;
19043;SDS011;9654;52.302;8.120;2022-12-20T03:37:25;3.87;;;2.53;;
19043;SDS011;9654;52.302;8.120;2022-12-20T03:39:51;14.57;;;9.37;;
19043;SDS011;9654;52.302;8.120;2022-12-20T03:42:18;10.10;;;6.27;;
19043;SDS011;9654;52.302;8.120;2022-12-20T03:44:45;8.90;;;4.47;;
19043;SDS011;9654;52.302;8.120;2022-12-20T03:47:12;10.33;;;4.77;;
19043;SDS011;9654;52.302;8.120;2022-12-20T03:49:40;31.23;;;17.00;;
19043;SDS011;9654;52.302;8.120;2022-12-20T03:52:08;12.77;;;6.30;;
19043;SDS011;9654;52.302;8.120;2022-12-20T03:54:36;6.97;;;5.03;;
19043;SDS011;9654;52.302;8.120;2022-12-20T03:57:03;5.80;;;3.60;;
19043;SDS011;9654;52.302;8.120;2022-12-20T03:59:30;4.10;;;3.17;;
19043;SDS011;9654;52.302;8.120;2022-12-20T04:01:57;4.87;;;3.00;;
19043;SDS011;9654;52.302;8.120;2022-12-20T04:04:24;14.50;;;8.27;;
19043;SDS011;9654;52.302;8.120;2022-12-20T04:06:52;26.40;;;17.73;;
19043;SDS011;9654;52.302;8.120;2022-12-20T04:09:19;3.60;;;3.30;;
19043;SDS011;9654;52.302;8.120;2022-12-20T04:11:45;10.63;;;7.57;;
19043;SDS011;9654;52.302;8.120;2022-12-20T04:14:12;5.30;;;3.63;;
19043;SDS011;9654;52.302;8.120;2022-12-20T04:16:39;7.47;;;4.83;;
19043;SDS011;9654;52.302;8.120;2022-12-20T04:19:06;3.20;;;2.60;;
19043;SDS011;9654;52.302;8.120;2022-12-20T04:21:33;5.83;;;2.83;;
19043;SDS011;9654;52.302;8.120;2022-12-20T04:24:02;4.50;;;2.57;;
19043;SDS011;9654;52.302;8.120;2022-12-20T04:26:30;6.10;;;3.43;;
19043;SDS011;9654;52.302;8.120;2022-12-20T04:28:57;3.33;;;2.67;;
19043;SDS011;9654;52.302;8.120;2022-12-20T04:31:24;6.03;;;2.70;;
19043;SDS011;9654;52.302;8.120;2022-12-20T04:33:50;5.27;;;2.47;;
19043;SDS011;9654;52.302;8.120;2022-12-20T04:36:18;5.07;;;2.67;;
19043;SDS011;9654;52.302;8.120;2022-12-20T04:38:45;6.57;;;3.10;;
19043;SDS011;9654;52.302;8.120;2022-12-20T04:41:13;4.50;;;3.20;;
19043;SDS011;9654;52.302;8.120;2022-12-20T04:43:46;3.00;;;2.53;;
19043;SDS011;9654;52.302;8.120;2022-12-20T04:46:14;4.20;;;2.73;;
19043;SDS011;9654;52.302;8.120;2022-12-20T04:48:40;7.63;;;3.27;;
19043;SDS011;9654;52.302;8.120;2022-12-20T04:51:07;6.27;;;2.70;;
19043;SDS011;9654;52.302;8.120;2022-12-20T04:53:34;4.53;;;2.77;;
19043;SDS011;9654;52.302;8.120;2022-12-20T04:56:14;5.40;;;3.17;;
19043;SDS011;9654;52.302;8.120;2022-12-20T04:58:42;4.23;;;2.73;;
19043;SDS011;9654;52.302;8.120;2022-12-20T05:01:09;5.63;;;2.90;;
19043;SDS011;9654;52.302;8.120;2022-12-20T05:03:36;4.87;;;2.80;;
19043;SDS011;9654;52.302;8.120;2022-12-20T05:06:03;3.03;;;2.80;;
19043;SDS011;9654;52.302;8.120;2022-12-20T05:08:30;3.80;;;2.80;;
19043;SDS011;9654;52.302;8.120;2022-12-20T05:10:57;3.23;;;2.60;;
19043;SDS011;9654;52.302;8.120;2022-12-20T05:13:25;4.87;;;2.70;;
19043;SDS011;9654;52.302;8.120;2022-12-20T05:15:53;3.10;;;2.83;;
19043;SDS011;9654;52.302;8.120;2022-12-20T05:18:20;6.73;;;2.93;;
19043;SDS011;9654;52.302;8.120;2022-12-20T05:20:48;4.57;;;3.10;;
19043;SDS011;9654;52.302;8.120;2022-12-20T05:23:35;5.73;;;3.27;;
19043;SDS011;9654;52.302;8.120;2022-12-20T05:26:20;5.43;;;3.07;;
19043;SDS011;9654;52.302;8.120;2022-12-20T05:28:50;5.13;;;2.73;;
19043;SDS011;9654;52.302;8.120;2022-12-20T05:31:17;3.10;;;2.80;;
19043;SDS011;9654;52.302;8.120;2022-12-20T05:33:44;4.37;;;3.10;;
19043;SDS011;9654;52.302;8.120;2022-12-20T05:36:10;3.20;;;2.90;;
19043;SDS011;9654;52.302;8.120;2022-12-20T05:41:13;4.57;;;3.10;;
19043;SDS011;9654;52.302;8.120;2022-12-20T05:43:40;4.37;;;3.17;;
19043;SDS011;9654;52.302;8.120;2022-12-20T05:46:08;4.03;;;3.13;;
19043;SDS011;9654;52.302;8.120;2022-12-20T05:48:35;4.87;;;2.93;;
19043;SDS011;9654;52.302;8.120;2022-12-20T05:51:02;4.10;;;3.00;;
19043;SDS011;9654;52.302;8.120;2022-12-20T05:53:31;4.10;;;3.07;;
19043;SDS011;9654;52.302;8.120;2022-12-20T05:55:59;5.30;;;2.97;;
19043;SDS011;9654;52.302;8.120;2022-12-20T05:58:34;3.63;;;2.83;;
19043;SDS011;9654;52.302;8.120;2022-12-20T06:01:23;3.67;;;3.37;;
19043;SDS011;9654;52.302;8.120;2022-12-20T06:03:53;8.00;;;2.90;;
19043;SDS011;9654;52.302;8.120;2022-12-20T06:06:23;5.57;;;3.50;;
19043;SDS011;9654;52.302;8.120;2022-12-20T06:09:16;4.17;;;2.93;;
19043;SDS011;9654;52.302;8.120;2022-12-20T06:11:46;4.13;;;3.50;;
19043;SDS011;9654;52.302;8.120;2022-12-20T06:14:15;3.50;;;3.20;;
19043;SDS011;9654;52.302;8.120;2022-12-20T06:16:44;3.53;;;3.23;;
19043;SDS011;9654;52.302;8.120;2022-12-20T06:19:11;5.83;;;3.60;;
19043;SDS011;9654;52.302;8.120;2022-12-20T06:21:39;7.27;;;3.47;;
19043;SDS011;9654;52.302;8.120;2022-12-20T06:24:08;3.43;;;3.13;;
19043;SDS011;9654;52.302;8.120;2022-12-20T06:26:35;5.70;;;3.90;;
19043;SDS011;9654;52.302;8.120;2022-12-20T06:29:03;5.33;;;3.83;;
19043;SDS011;9654;52.302;8.120;2022-12-20T06:31:33;3.70;;;3.23;;
19043;SDS011;9654;52.302;8.120;2022-12-20T06:34:04;6.73;;;3.23;;
19043;SDS011;9654;52.302;8.120;2022-12-20T06:36:31;3.67;;;3.37;;
19043;SDS011;9654;52.302;8.120;2022-12-20T06:39:00;6.73;;;3.70;;
19043;SDS011;9654;52.302;8.120;2022-12-20T06:41:28;6.00;;;3.43;;
19043;SDS011;9654;52.302;8.120;2022-12-20T06:43:56;4.23;;;3.10;;
19043;SDS011;9654;52.302;8.120;2022-12-20T06:46:26;4.53;;;3.43;;
19043;SDS011;9654;52.302;8.120;2022-12-20T06:48:54;4.67;;;3.30;;
19043;SDS011;9654;52.302;8.120;2022-12-20T06:51:32;6.33;;;4.37;;
19043;SDS011;9654;52.302;8.120;2022-12-20T06:55:39;8.43;;;5.90;;
19043;SDS011;9654;52.302;8.120;2022-12-20T06:57:18;7.77;;;4.50;;
19043;SDS011;9654;52.302;8.120;2022-12-20T06:59:54;5.97;;;4.50;;
19043;SDS011;9654;52.302;8.120;2022-12-20T07:02:21;9.00;;;5.10;;
19043;SDS011;9654;52.302;8.120;2022-12-20T07:05:11;6.37;;;3.77;;
19043;SDS011;9654;52.302;8.120;2022-12-20T07:07:59;12.03;;;6.17;;
19043;SDS011;9654;52.302;8.120;2022-12-20T07:10:32;11.97;;;5.00;;
19043;SDS011;9654;52.302;8.120;2022-12-20T07:13:08;11.53;;;5.57;;
19043;SDS011;9654;52.302;8.120;2022-12-20T07:16:19;12.97;;;6.57;;
19043;SDS011;9654;52.302;8.120;2022-12-20T07:19:02;7.10;;;4.60;;
19043;SDS011;9654;52.302;8.120;2022-12-20T07:21:58;17.63;;;10.07;;
19043;SDS011;9654;52.302;8.120;2022-12-20T07:27:23;9.40;;;4.60;;
19043;SDS011;9654;52.302;8.120;2022-12-20T07:29:58;5.30;;;3.43;;
19043;SDS011;9654;52.302;8.120;2022-12-20T07:32:50;5.53;;;3.97;;
19043;SDS011;9654;52.302;8.120;2022-12-20T07:35:45;7.37;;;4.53;;
19043;SDS011;9654;52.302;8.120;2022-12-20T07:38:34;5.40;;;3.43;;
19043;SDS011;9654;52.302;8.120;2022-12-20T07:41:25;8.00;;;4.00;;
19043;SDS011;9654;52.302;8.120;2022-12-20T07:44:45;7.37;;;4.70;;
19043;SDS011;9654;52.302;8.120;2022-12-20T07:47:32;5.43;;;4.20;;
19043;SDS011;9654;52.302;8.120;2022-12-20T07:53:29;6.67;;;4.33;;
19043;SDS011;9654;52.302;8.120;2022-12-20T07:56:06;8.33;;;4.20;;
19043;SDS011;9654;52.302;8.120;2022-12-20T07:59:16;5.47;;;4.10;;
19043;SDS011;9654;52.302;8.120;2022-12-20T08:02:33;6.63;;;4.47;;
19043;SDS011;9654;52.302;8.120;2022-12-20T08:05:45;8.67;;;4.53;;
19043;SDS011;9654;52.302;8.120;2022-12-20T08:08:46;5.83;;;4.13;;
19043;SDS011;9654;52.302;8.120;2022-12-20T08:15:07;6.40;;;4.63;;
19043;SDS011;9654;52.302;8.120;2022-12-20T08:18:21;7.87;;;5.47;;
19043;SDS011;9654;52.302;8.120;2022-12-20T08:21:08;7.63;;;4.90;;
19043;SDS011;9654;52.302;8.120;2022-12-20T08:23:40;13.97;;;7.50;;
19043;SDS011;9654;52.302;8.120;2022-12-20T08:26:08;7.23;;;5.23;;
19043;SDS011;9654;52.302;8.120;2022-12-20T08:28:37;6.50;;;4.63;;
19043;SDS011;9654;52.302;8.120;2022-12-20T08:34:25;9.93;;;7.20;;
19043;SDS011;9654;52.302;8.120;2022-12-20T08:37:14;9.20;;;6.50;;
19043;SDS011;9654;52.302;8.120;2022-12-20T08:39:49;9.27;;;6.63;;
19043;SDS011;9654;52.302;8.120;2022-12-20T08:42:33;7.03;;;4.70;;
19043;SDS011;9654;52.302;8.120;2022-12-20T08:45:23;7.10;;;4.73;;
19043;SDS011;9654;52.302;8.120;2022-12-20T08:48:04;6.67;;;4.87;;
19043;SDS011;9654;52.302;8.120;2022-12-20T08:50:39;7.57;;;5.40;;
19043;SDS011;9654;52.302;8.120;2022-12-20T08:53:53;11.33;;;5.37;;
19043;SDS011;9654;52.302;8.120;2022-12-20T08:56:28;6.73;;;3.97;;
19043;SDS011;9654;52.302;8.120;2022-12-20T08:59:21;12.80;;;6.23;;
19043;SDS011;9654;52.302;8.120;2022-12-20T09:01:54;6.00;;;4.63;;
19043;SDS011;9654;52.302;8.120;2022-12-20T09:07:46;9.67;;;5.40;;
19043;SDS011;9654;52.302;8.120;2022-12-20T09:10:20;10.73;;;6.47;;
19043;SDS011;9654;52.302;8.120;2022-12-20T09:13:05;9.43;;;5.83;;
19043;SDS011;9654;52.302;8.120;2022-12-20T09:15:35;18.20;;;8.77;;
19043;SDS011;9654;52.302;8.120;2022-12-20T09:18:10;9.13;;;5.17;;
19043;SDS011;9654;52.302;8.120;2022-12-20T09:20:44;4.90;;;4.23;;
19043;SDS011;9654;52.302;8.120;2022-12-20T09:23:32;5.70;;;4.03;;
19043;SDS011;9654;52.302;8.120;2022-12-20T09:26:13;5.87;;;3.90;;
19043;SDS011;9654;52.302;8.120;2022-12-20T09:35:52;3.67;;;3.30;;
19043;SDS011;9654;52.302;8.120;2022-12-20T09:45:34;4.00;;;2.90;;
19043;SDS011;9654;52.302;8.120;2022-12-20T09:48:25;7.40;;;3.10;;
19043;SDS011;9654;52.302;8.120;2022-12-20T09:53:45;8.53;;;3.63;;
19043;SDS011;9654;52.302;8.120;2022-12-20T09:55:03;6.00;;;3.00;;
19043;SDS011;9654;52.302;8.120;2022-12-20T10:14:18;3.33;;;2.60;;
19043;SDS011;9654;52.302;8.120;2022-12-20T10:18:23;5.90;;;2.77;;
19043;SDS011;9654;52.302;8.120;2022-12-20T10:21:16;3.37;;;2.50;;
19043;SDS011;9654;52.302;8.120;2022-12-20T10:23:51;6.63;;;2.80;;
19043;SDS011;9654;52.302;8.120;2022-12-20T10:26:43;4.43;;;2.87;;
19043;SDS011;9654;52.302;8.120;2022-12-20T10:29:52;5.27;;;2.83;;
19043;SDS011;9654;52.302;8.120;2022-12-20T10:32:53;4.80;;;2.63;;
19043;SDS011;9654;52.302;8.120;2022-12-20T10:40:10;5.93;;;2.90;;
19043;SDS011;9654;52.302;8.120;2022-12-20T10:43:43;4.93;;;2.77;;
19043;SDS011;9654;52.302;8.120;2022-12-20T10:52:24;5.87;;;2.93;;
19043;SDS011;9654;52.302;8.120;2022-12-20T10:56:47;3.90;;;2.50;;
19043;SDS011;9654;52.302;8.120;2022-12-20T11:00:03;4.53;;;2.77;;
19043;SDS011;9654;52.302;8.120;2022-12-20T11:09:30;3.70;;;2.37;;
19043;SDS011;9654;52.302;8.120;2022-12-20T11:12:28;2.90;;;2.33;;
19043;SDS011;9654;52.302;8.120;2022-12-20T11:15:18;5.07;;;2.33;;
19043;SDS011;9654;52.302;8.120;2022-12-20T11:21:25;5.80;;;2.97;;
19043;SDS011;9654;52.302;8.120;2022-12-20T11:40:50;6.00;;;2.50;;
19043;SDS011;9654;52.302;8.120;2022-12-20T11:43:24;5.43;;;2.50;;
19043;SDS011;9654;52.302;8.120;2022-12-20T11:46:05;5.07;;;2.90;;
19043;SDS011;9654;52.302;8.120;2022-12-20T11:48:49;6.00;;;3.00;;
19043;SDS011;9654;52.302;8.120;2022-12-20T11:51:34;3.70;;;2.67;;
19043;SDS011;9654;52.302;8.120;2022-12-20T11:54:09;4.90;;;2.30;;
19043;SDS011;9654;52.302;8.120;2022-12-20T11:56:45;5.00;;;2.87;;
19043;SDS011;9654;52.302;8.120;2022-12-20T11:59:18;4.60;;;2.50;;
19043;SDS011;9654;52.302;8.120;2022-12-20T12:01:50;5.57;;;2.80;;
19043;SDS011;9654;52.302;8.120;2022-12-20T12:04:24;4.33;;;2.50;;
19043;SDS011;9654;52.302;8.120;2022-12-20T12:06:55;4.00;;;2.60;;
19043;SDS011;9654;52.302;8.120;2022-12-20T12:09:27;5.23;;;2.33;;
19043;SDS011;9654;52.302;8.120;2022-12-20T12:12:02;2.67;;;2.27;;
19043;SDS011;9654;52.302;8.120;2022-12-20T12:14:37;3.43;;;2.67;;
19043;SDS011;9654;52.302;8.120;2022-12-20T12:17:12;5.13;;;2.53;;
19043;SDS011;9654;52.302;8.120;2022-12-20T12:19:49;2.43;;;2.23;;
19043;SDS011;9654;52.302;8.120;2022-12-20T12:22:19;3.20;;;2.20;;
19043;SDS011;9654;52.302;8.120;2022-12-20T12:24:53;3.03;;;2.30;;
19043;SDS011;9654;52.302;8.120;2022-12-20T12:27:26;3.43;;;2.50;;
19043;SDS011;9654;52.302;8.120;2022-12-20T12:29:54;6.97;;;2.40;;
19043;SDS011;9654;52.302;8.120;2022-12-20T12:32:24;3.70;;;2.33;;
19043;SDS011;9654;52.302;8.120;2022-12-20T12:35:00;5.07;;;2.40;;
19043;SDS011;9654;52.302;8.120;2022-12-20T12:37:39;3.60;;;2.23;;
19043;SDS011;9654;52.302;8.120;2022-12-20T12:40:29;5.07;;;2.70;;
19043;SDS011;9654;52.302;8.120;2022-12-20T12:43:26;4.50;;;2.60;;
19043;SDS011;9654;52.302;8.120;2022-12-20T12:46:13;5.27;;;2.27;;
19043;SDS011;9654;52.302;8.120;2022-12-20T12:48:44;6.33;;;2.27;;
19043;SDS011;9654;52.302;8.120;2022-12-20T12:51:18;3.33;;;2.10;;
19043;SDS011;9654;52.302;8.120;2022-12-20T12:53:50;4.77;;;2.33;;
19043;SDS011;9654;52.302;8.120;2022-12-20T12:56:29;3.37;;;2.40;;
19043;SDS011;9654;52.302;8.120;2022-12-20T12:59:15;4.37;;;2.60;;
19043;SDS011;9654;52.302;8.120;2022-12-20T13:01:48;2.63;;;2.33;;
19043;SDS011;9654;52.302;8.120;2022-12-20T13:04:27;2.60;;;2.40;;
19043;SDS011;9654;52.302;8.120;2022-12-20T13:06:56;6.00;;;2.60;;
19043;SDS011;9654;52.302;8.120;2022-12-20T13:18:19;6.20;;;2.83;;
19043;SDS011;9654;52.302;8.120;2022-12-20T13:21:27;4.63;;;3.57;;
19043;SDS011;9654;52.302;8.120;2022-12-20T13:29:57;5.07;;;3.33;;
19043;SDS011;9654;52.302;8.120;2022-12-20T13:35:30;3.20;;;2.70;;
19043;SDS011;9654;52.302;8.120;2022-12-20T13:41:08;7.43;;;4.03;;
19043;SDS011;9654;52.302;8.120;2022-12-20T13:43:43;11.00;;;3.07;;
19043;SDS011;9654;52.302;8.120;2022-12-20T13:46:12;4.63;;;3.07;;
19043;SDS011;9654;52.302;8.120;2022-12-20T13:48:48;5.67;;;3.53;;
19043;SDS011;9654;52.302;8.120;2022-12-20T13:51:19;4.80;;;3.13;;
19043;SDS011;9654;52.302;8.120;2022-12-20T13:53:50;4.10;;;3.67;;
19043;SDS011;9654;52.302;8.120;2022-12-20T13:56:19;9.17;;;3.70;;
19043;SDS011;9654;52.302;8.120;2022-12-20T13:59:12;6.47;;;3.93;;
19043;SDS011;9654;52.302;8.120;2022-12-20T14:01:48;8.30;;;3.70;;
19043;SDS011;9654;52.302;8.120;2022-12-20T14:04:18;5.27;;;3.67;;
19043;SDS011;9654;52.302;8.120;2022-12-20T14:06:49;8.17;;;3.50;;
19043;SDS011;9654;52.302;8.120;2022-12-20T14:09:27;4.57;;;3.53;;
19043;SDS011;9654;52.302;8.120;2022-12-20T14:12:01;7.63;;;3.93;;
19043;SDS011;9654;52.302;8.120;2022-12-20T14:14:29;4.37;;;3.30;;
19043;SDS011;9654;52.302;8.120;2022-12-20T14:17:04;6.23;;;3.60;;
19043;SDS011;9654;52.302;8.120;2022-12-20T14:19:41;6.50;;;3.13;;
19043;SDS011;9654;52.302;8.120;2022-12-20T14:22:08;5.43;;;3.03;;
19043;SDS011;9654;52.302;8.120;2022-12-20T14:24:36;4.07;;;3.20;;
19043;SDS011;9654;52.302;8.120;2022-12-20T14:27:05;5.23;;;2.80;;
19043;SDS011;9654;52.302;8.120;2022-12-20T14:29:33;3.40;;;3.10;;
19043;SDS011;9654;52.302;8.120;2022-12-20T14:32:00;6.47;;;2.93;;
19043;SDS011;9654;52.302;8.120;2022-12-20T14:34:27;6.13;;;3.20;;
19043;SDS011;9654;52.302;8.120;2022-12-20T14:39:54;4.37;;;3.07;;
19043;SDS011;9654;52.302;8.120;2022-12-20T14:42:23;4.17;;;2.93;;
19043;SDS011;9654;52.302;8.120;2022-12-20T14:45:01;4.90;;;2.70;;
19043;SDS011;9654;52.302;8.120;2022-12-20T14:47:32;6.30;;;3.23;;
19043;SDS011;9654;52.302;8.120;2022-12-20T14:50:00;6.10;;;3.07;;
19043;SDS011;9654;52.302;8.120;2022-12-20T14:52:32;6.30;;;3.10;;
19043;SDS011;9654;52.302;8.120;2022-12-20T14:55:03;5.37;;;3.23;;
19043;SDS011;9654;52.302;8.120;2022-12-20T14:57:37;6.87;;;2.80;;
19043;SDS011;9654;52.302;8.120;2022-12-20T15:00:09;3.83;;;3.03;;
19043;SDS011;9654;52.302;8.120;2022-12-20T15:02:40;9.70;;;2.83;;
19043;SDS011;9654;52.302;8.120;2022-12-20T15:08:15;5.37;;;2.70;;
19043;SDS011;9654;52.302;8.120;2022-12-20T15:10:48;3.60;;;3.20;;
19043;SDS011;9654;52.302;8.120;2022-12-20T15:13:20;5.97;;;3.13;;
19043;SDS011;9654;52.302;8.120;2022-12-20T15:15:47;5.57;;;3.53;;
19043;SDS011;9654;52.302;8.120;2022-12-20T15:18:16;5.67;;;3.37;;
19043;SDS011;9654;52.302;8.120;2022-12-20T15:20:45;5.67;;;4.17;;
19043;SDS011;9654;52.302;8.120;2022-12-20T15:23:15;7.27;;;3.80;;
19043;SDS011;9654;52.302;8.120;2022-12-20T15:25:43;8.00;;;3.67;;
19043;SDS011;9654;52.302;8.120;2022-12-20T15:28:11;9.23;;;3.80;;
19043;SDS011;9654;52.302;8.120;2022-12-20T15:30:40;7.53;;;3.80;;
19043;SDS011;9654;52.302;8.120;2022-12-20T15:33:08;7.10;;;4.20;;
19043;SDS011;9654;52.302;8.120;2022-12-20T15:35:40;4.80;;;4.23;;
19043;SDS011;9654;52.302;8.120;2022-12-20T15:38:08;10.43;;;4.77;;
19043;SDS011;9654;52.302;8.120;2022-12-20T15:40:46;6.53;;;4.97;;
19043;SDS011;9654;52.302;8.120;2022-12-20T15:43:16;9.00;;;5.43;;
19043;SDS011;9654;52.302;8.120;2022-12-20T15:45:45;6.47;;;4.77;;
19043;SDS011;9654;52.302;8.120;2022-12-20T15:48:14;7.97;;;5.60;;
19043;SDS011;9654;52.302;8.120;2022-12-20T15:50:43;6.63;;;5.07;;
19043;SDS011;9654;52.302;8.120;2022-12-20T15:53:16;8.97;;;6.30;;
19043;SDS011;9654;52.302;8.120;2022-12-20T15:55:47;8.47;;;5.87;;
19043;SDS011;9654;52.302;8.120;2022-12-20T15:58:18;7.57;;;5.93;;
19043;SDS011;9654;52.302;8.120;2022-12-20T16:00:45;8.13;;;6.57;;
19043;SDS011;9654;52.302;8.120;2022-12-20T16:03:14;8.90;;;6.63;;
19043;SDS011;9654;52.302;8.120;2022-12-20T16:05:44;10.53;;;6.73;;
19043;SDS011;9654;52.302;8.120;2022-12-20T16:08:12;8.53;;;6.67;;
19043;SDS011;9654;52.302;8.120;2022-12-20T16:10:40;7.80;;;6.33;;
19043;SDS011;9654;52.302;8.120;2022-12-20T16:13:08;10.97;;;7.60;;
19043;SDS011;9654;52.302;8.120;2022-12-20T16:15:38;8.27;;;7.40;;
19043;SDS011;9654;52.302;8.120;2022-12-20T16:18:05;10.20;;;7.30;;
19043;SDS011;9654;52.302;8.120;2022-12-20T16:20:33;9.00;;;8.10;;
19043;SDS011;9654;52.302;8.120;2022-12-20T16:22:59;11.97;;;8.30;;
19043;SDS011;9654;52.302;8.120;2022-12-20T16:25:29;12.87;;;8.50;;
19043;SDS011;9654;52.302;8.120;2022-12-20T16:27:58;16.23;;;9.27;;
19043;SDS011;9654;52.302;8.120;2022-12-20T16:30:25;11.50;;;9.40;;
19043;SDS011;9654;52.302;8.120;2022-12-20T16:32:52;13.67;;;9.80;;
19043;SDS011;9654;52.302;8.120;2022-12-20T16:35:23;13.93;;;10.50;;
19043;SDS011;9654;52.302;8.120;2022-12-20T16:37:55;16.77;;;10.67;;
19043;SDS011;9654;52.302;8.120;2022-12-20T16:40:24;13.17;;;10.47;;
19043;SDS011;9654;52.302;8.120;2022-12-20T16:42:52;14.63;;;10.90;;
19043;SDS011;9654;52.302;8.120;2022-12-20T16:45:21;16.03;;;10.50;;
19043;SDS011;9654;52.302;8.120;2022-12-20T16:47:50;17.20;;;10.10;;
19043;SDS011;9654;52.302;8.120;2022-12-20T16:50:18;15.63;;;10.00;;
19043;SDS011;9654;52.302;8.120;2022-12-20T16:52:46;12.67;;;10.13;;
19043;SDS011;9654;52.302;8.120;2022-12-20T16:55:15;14.07;;;9.73;;
19043;SDS011;9654;52.302;8.120;2022-12-20T16:57:45;13.90;;;10.37;;
19043;SDS011;9654;52.302;8.120;2022-12-20T17:00:15;19.70;;;11.47;;
19043;SDS011;9654;52.302;8.120;2022-12-20T17:02:45;17.10;;;12.27;;
19043;SDS011;9654;52.302;8.120;2022-12-20T17:05:25;18.33;;;12.10;;
19043;SDS011;9654;52.302;8.120;2022-12-20T17:07:54;18.27;;;11.80;;
19043;SDS011;9654;52.302;8.120;2022-12-20T17:10:21;15.00;;;11.73;;
19043;SDS011;9654;52.302;8.120;2022-12-20T17:12:49;16.67;;;11.80;;
19043;SDS011;9654;52.302;8.120;2022-12-20T17:15:18;17.30;;;11.97;;
19043;SDS011;9654;52.302;8.120;2022-12-20T17:17:48;20.27;;;12.37;;
19043;SDS011;9654;52.302;8.120;2022-12-20T17:20:15;16.77;;;11.93;;
19043;SDS011;9654;52.302;8.120;2022-12-20T17:22:43;17.37;;;11.80;;
19043;SDS011;9654;52.302;8.120;2022-12-20T17:25:23;16.87;;;12.20;;
19043;SDS011;9654;52.302;8.120;2022-12-20T17:27:52;16.93;;;11.93;;
19043;SDS011;9654;52.302;8.120;2022-12-20T17:30:20;16.97;;;12.73;;
19043;SDS011;9654;52.302;8.120;2022-12-20T17:32:49;14.93;;;11.27;;
19043;SDS011;9654;52.302;8.120;2022-12-20T17:35:17;17.63;;;11.83;;